sensor_id;sensor_type;location;lat;lon;timestamp;P1;durP1;ratioP1;P2;durP2;ratioP2
6249;SDS011;3158;52.148;11.568;2024-02-28T00:02:50;12.15;;;7.47;;
6249;SDS011;3158;52.148;11.568;2024-02-28T00:07:50;14.95;;;8.50;;
6249;SDS011;3158;52.148;11.568;2024-02-28T00:12:52;18.85;;;9.90;;
6249;SDS011;3158;52.148;11.568;2024-02-28T00:17:53;23.42;;;10.18;;
6249;SDS011;3158;52.148;11.568;2024-02-28T00:22:54;18.27;;;10.77;;
6249;SDS011;3158;52.148;11.568;2024-02-28T00:27:54;16.33;;;9.43;;
6249;SDS011;3158;52.148;11.568;2024-02-28T00:32:54;16.67;;;9.50;;
6249;SDS011;3158;52.148;11.568;2024-02-28T00:37:54;14.63;;;8.85;;
6249;SDS011;3158;52.148;11.568;2024-02-28T00:42:55;22.17;;;10.25;;
6249;SDS011;3158;52.148;11.568;2024-02-28T00:47:55;16.10;;;9.55;;
6249;SDS011;3158;52.148;11.568;2024-02-28T00:52:55;19.25;;;9.27;;
6249;SDS011;3158;52.148;11.568;2024-02-28T00:57:56;15.67;;;8.70;;
6249;SDS011;3158;52.148;11.568;2024-02-28T01:02:56;14.55;;;8.57;;
6249;SDS011;3158;52.148;11.568;2024-02-28T01:07:56;12.98;;;7.40;;
6249;SDS011;3158;52.148;11.568;2024-02-28T01:12:56;15.07;;;8.00;;
6249;SDS011;3158;52.148;11.568;2024-02-28T01:17:57;14.48;;;7.13;;
6249;SDS011;3158;52.148;11.568;2024-02-28T01:22:58;15.07;;;7.88;;
6249;SDS011;3158;52.148;11.568;2024-02-28T01:27:58;15.18;;;7.53;;
6249;SDS011;3158;52.148;11.568;2024-02-28T01:32:58;13.27;;;7.87;;
6249;SDS011;3158;52.148;11.568;2024-02-28T01:37:58;15.02;;;8.00;;
6249;SDS011;3158;52.148;11.568;2024-02-28T01:43:02;12.45;;;7.05;;
6249;SDS011;3158;52.148;11.568;2024-02-28T01:48:03;16.23;;;9.02;;
6249;SDS011;3158;52.148;11.568;2024-02-28T01:53:05;13.30;;;7.55;;
6249;SDS011;3158;52.148;11.568;2024-02-28T01:58:06;13.80;;;7.97;;
6249;SDS011;3158;52.148;11.568;2024-02-28T02:03:06;12.73;;;7.43;;
6249;SDS011;3158;52.148;11.568;2024-02-28T02:08:07;15.55;;;8.27;;
6249;SDS011;3158;52.148;11.568;2024-02-28T02:13:07;17.23;;;7.68;;
6249;SDS011;3158;52.148;11.568;2024-02-28T02:18:07;15.55;;;7.57;;
6249;SDS011;3158;52.148;11.568;2024-02-28T02:23:08;13.30;;;6.55;;
6249;SDS011;3158;52.148;11.568;2024-02-28T02:28:08;11.48;;;6.72;;
6249;SDS011;3158;52.148;11.568;2024-02-28T02:33:08;13.60;;;7.20;;
6249;SDS011;3158;52.148;11.568;2024-02-28T02:38:08;11.73;;;6.70;;
6249;SDS011;3158;52.148;11.568;2024-02-28T02:43:09;11.55;;;6.80;;
6249;SDS011;3158;52.148;11.568;2024-02-28T02:48:09;9.25;;;5.60;;
6249;SDS011;3158;52.148;11.568;2024-02-28T02:53:10;12.70;;;6.03;;
6249;SDS011;3158;52.148;11.568;2024-02-28T02:58:10;10.10;;;6.30;;
6249;SDS011;3158;52.148;11.568;2024-02-28T03:03:10;11.32;;;6.30;;
6249;SDS011;3158;52.148;11.568;2024-02-28T03:08:11;12.15;;;6.20;;
6249;SDS011;3158;52.148;11.568;2024-02-28T03:13:11;9.97;;;5.50;;
6249;SDS011;3158;52.148;11.568;2024-02-28T03:18:11;10.07;;;6.13;;
6249;SDS011;3158;52.148;11.568;2024-02-28T03:23:11;12.02;;;6.05;;
6249;SDS011;3158;52.148;11.568;2024-02-28T03:28:12;9.95;;;6.13;;
6249;SDS011;3158;52.148;11.568;2024-02-28T03:33:12;12.13;;;6.25;;
6249;SDS011;3158;52.148;11.568;2024-02-28T03:38:12;10.02;;;5.65;;
6249;SDS011;3158;52.148;11.568;2024-02-28T03:43:12;10.48;;;5.65;;
6249;SDS011;3158;52.148;11.568;2024-02-28T03:48:13;9.43;;;6.10;;
6249;SDS011;3158;52.148;11.568;2024-02-28T03:53:13;12.32;;;6.60;;
6249;SDS011;3158;52.148;11.568;2024-02-28T03:58:14;9.68;;;5.80;;
6249;SDS011;3158;52.148;11.568;2024-02-28T04:03:14;8.85;;;5.53;;
6249;SDS011;3158;52.148;11.568;2024-02-28T04:08:14;7.68;;;5.35;;
6249;SDS011;3158;52.148;11.568;2024-02-28T04:13:15;8.95;;;5.38;;
6249;SDS011;3158;52.148;11.568;2024-02-28T04:18:15;11.30;;;6.40;;
6249;SDS011;3158;52.148;11.568;2024-02-28T04:23:15;9.65;;;5.30;;
6249;SDS011;3158;52.148;11.568;2024-02-28T04:28:16;7.47;;;4.97;;
6249;SDS011;3158;52.148;11.568;2024-02-28T04:33:17;7.68;;;5.50;;
6249;SDS011;3158;52.148;11.568;2024-02-28T04:38:17;8.93;;;5.28;;
6249;SDS011;3158;52.148;11.568;2024-02-28T04:43:17;9.18;;;5.93;;
6249;SDS011;3158;52.148;11.568;2024-02-28T04:48:17;6.28;;;4.93;;
6249;SDS011;3158;52.148;11.568;2024-02-28T04:53:18;7.50;;;5.80;;
6249;SDS011;3158;52.148;11.568;2024-02-28T04:58:18;6.82;;;5.38;;
6249;SDS011;3158;52.148;11.568;2024-02-28T05:03:18;8.52;;;5.57;;
6249;SDS011;3158;52.148;11.568;2024-02-28T05:08:19;9.95;;;6.07;;
6249;SDS011;3158;52.148;11.568;2024-02-28T05:13:20;6.10;;;5.50;;
6249;SDS011;3158;52.148;11.568;2024-02-28T05:18:22;10.73;;;6.22;;
6249;SDS011;3158;52.148;11.568;2024-02-28T05:23:22;8.02;;;6.32;;
6249;SDS011;3158;52.148;11.568;2024-02-28T05:28:23;9.18;;;6.05;;
6249;SDS011;3158;52.148;11.568;2024-02-28T05:33:23;12.25;;;6.80;;
6249;SDS011;3158;52.148;11.568;2024-02-28T05:38:24;11.73;;;7.32;;
6249;SDS011;3158;52.148;11.568;2024-02-28T05:43:24;12.25;;;7.35;;
6249;SDS011;3158;52.148;11.568;2024-02-28T05:48:24;10.52;;;7.00;;
6249;SDS011;3158;52.148;11.568;2024-02-28T05:53:24;13.35;;;7.45;;
6249;SDS011;3158;52.148;11.568;2024-02-28T05:58:28;10.25;;;7.22;;
6249;SDS011;3158;52.148;11.568;2024-02-28T06:03:28;10.90;;;6.78;;
6249;SDS011;3158;52.148;11.568;2024-02-28T06:08:28;12.85;;;6.53;;
6249;SDS011;3158;52.148;11.568;2024-02-28T06:13:28;8.90;;;5.75;;
6249;SDS011;3158;52.148;11.568;2024-02-28T06:18:29;6.85;;;5.50;;
6249;SDS011;3158;52.148;11.568;2024-02-28T06:23:33;6.55;;;5.53;;
6249;SDS011;3158;52.148;11.568;2024-02-28T06:28:33;5.82;;;4.97;;
6249;SDS011;3158;52.148;11.568;2024-02-28T06:33:33;6.35;;;4.90;;
6249;SDS011;3158;52.148;11.568;2024-02-28T06:38:33;7.30;;;5.20;;
6249;SDS011;3158;52.148;11.568;2024-02-28T06:43:34;7.00;;;4.47;;
6249;SDS011;3158;52.148;11.568;2024-02-28T06:48:37;5.38;;;4.60;;
6249;SDS011;3158;52.148;11.568;2024-02-28T06:53:38;6.45;;;4.03;;
6249;SDS011;3158;52.148;11.568;2024-02-28T06:58:38;5.88;;;4.57;;
6249;SDS011;3158;52.148;11.568;2024-02-28T07:03:38;7.47;;;5.22;;
6249;SDS011;3158;52.148;11.568;2024-02-28T07:08:38;5.63;;;4.95;;
6249;SDS011;3158;52.148;11.568;2024-02-28T07:13:39;6.82;;;4.70;;
6249;SDS011;3158;52.148;11.568;2024-02-28T07:18:39;5.43;;;4.70;;
6249;SDS011;3158;52.148;11.568;2024-02-28T07:23:39;9.15;;;5.60;;
6249;SDS011;3158;52.148;11.568;2024-02-28T07:28:40;9.05;;;5.60;;
6249;SDS011;3158;52.148;11.568;2024-02-28T07:33:41;7.57;;;5.72;;
6249;SDS011;3158;52.148;11.568;2024-02-28T07:38:41;10.20;;;7.10;;
6249;SDS011;3158;52.148;11.568;2024-02-28T07:43:42;10.15;;;6.28;;
6249;SDS011;3158;52.148;11.568;2024-02-28T07:48:43;13.02;;;6.80;;
6249;SDS011;3158;52.148;11.568;2024-02-28T07:53:43;12.45;;;7.35;;
6249;SDS011;3158;52.148;11.568;2024-02-28T07:58:43;10.23;;;6.43;;
6249;SDS011;3158;52.148;11.568;2024-02-28T08:03:43;9.48;;;6.30;;
6249;SDS011;3158;52.148;11.568;2024-02-28T08:08:44;9.00;;;6.50;;
6249;SDS011;3158;52.148;11.568;2024-02-28T08:13:45;12.73;;;7.95;;
6249;SDS011;3158;52.148;11.568;2024-02-28T08:18:45;12.02;;;8.07;;
6249;SDS011;3158;52.148;11.568;2024-02-28T08:23:46;16.30;;;8.98;;
6249;SDS011;3158;52.148;11.568;2024-02-28T08:28:47;16.00;;;9.98;;
6249;SDS011;3158;52.148;11.568;2024-02-28T08:33:47;16.60;;;9.30;;
6249;SDS011;3158;52.148;11.568;2024-02-28T08:38:48;16.15;;;9.52;;
6249;SDS011;3158;52.148;11.568;2024-02-28T08:43:48;16.00;;;9.35;;
6249;SDS011;3158;52.148;11.568;2024-02-28T08:48:48;17.17;;;10.07;;
6249;SDS011;3158;52.148;11.568;2024-02-28T08:53:49;17.40;;;9.13;;
6249;SDS011;3158;52.148;11.568;2024-02-28T08:58:49;17.75;;;10.30;;
6249;SDS011;3158;52.148;11.568;2024-02-28T09:03:49;18.88;;;10.77;;
6249;SDS011;3158;52.148;11.568;2024-02-28T09:08:50;16.90;;;10.40;;
6249;SDS011;3158;52.148;11.568;2024-02-28T09:13:50;18.52;;;10.50;;
6249;SDS011;3158;52.148;11.568;2024-02-28T09:18:50;21.58;;;10.85;;
6249;SDS011;3158;52.148;11.568;2024-02-28T09:23:51;19.60;;;11.02;;
6249;SDS011;3158;52.148;11.568;2024-02-28T09:28:51;17.05;;;10.05;;
6249;SDS011;3158;52.148;11.568;2024-02-28T09:33:51;16.13;;;9.75;;
6249;SDS011;3158;52.148;11.568;2024-02-28T09:38:51;18.80;;;10.20;;
6249;SDS011;3158;52.148;11.568;2024-02-28T09:43:52;17.92;;;10.10;;
6249;SDS011;3158;52.148;11.568;2024-02-28T09:48:52;19.10;;;10.75;;
6249;SDS011;3158;52.148;11.568;2024-02-28T09:53:54;17.98;;;10.05;;
6249;SDS011;3158;52.148;11.568;2024-02-28T09:58:55;17.80;;;10.23;;
6249;SDS011;3158;52.148;11.568;2024-02-28T10:03:55;21.17;;;11.40;;
6249;SDS011;3158;52.148;11.568;2024-02-28T10:08:56;17.05;;;10.00;;
6249;SDS011;3158;52.148;11.568;2024-02-28T10:13:56;18.85;;;10.95;;
6249;SDS011;3158;52.148;11.568;2024-02-28T10:18:57;20.88;;;12.65;;
6249;SDS011;3158;52.148;11.568;2024-02-28T10:23:57;18.55;;;11.43;;
6249;SDS011;3158;52.148;11.568;2024-02-28T10:28:58;21.48;;;11.23;;
6249;SDS011;3158;52.148;11.568;2024-02-28T10:33:59;22.25;;;11.70;;
6249;SDS011;3158;52.148;11.568;2024-02-28T10:39:00;20.75;;;12.07;;
6249;SDS011;3158;52.148;11.568;2024-02-28T10:44:01;19.77;;;11.77;;
6249;SDS011;3158;52.148;11.568;2024-02-28T10:49:01;15.93;;;11.07;;
6249;SDS011;3158;52.148;11.568;2024-02-28T10:54:06;21.23;;;11.43;;
6249;SDS011;3158;52.148;11.568;2024-02-28T10:59:08;19.63;;;11.40;;
6249;SDS011;3158;52.148;11.568;2024-02-28T11:04:12;19.88;;;11.48;;
6249;SDS011;3158;52.148;11.568;2024-02-28T11:09:18;19.77;;;12.30;;
6249;SDS011;3158;52.148;11.568;2024-02-28T11:14:19;22.52;;;12.02;;
6249;SDS011;3158;52.148;11.568;2024-02-28T11:19:22;15.93;;;10.48;;
6249;SDS011;3158;52.148;11.568;2024-02-28T11:24:33;20.75;;;11.40;;
6249;SDS011;3158;52.148;11.568;2024-02-28T11:29:33;22.20;;;11.60;;
6249;SDS011;3158;52.148;11.568;2024-02-28T11:34:33;17.27;;;11.02;;
6249;SDS011;3158;52.148;11.568;2024-02-28T11:39:34;19.25;;;10.77;;
6249;SDS011;3158;52.148;11.568;2024-02-28T11:44:34;15.65;;;11.43;;
6249;SDS011;3158;52.148;11.568;2024-02-28T11:49:34;16.48;;;11.40;;
6249;SDS011;3158;52.148;11.568;2024-02-28T11:54:35;16.25;;;11.30;;
6249;SDS011;3158;52.148;11.568;2024-02-28T11:59:35;16.88;;;11.15;;
6249;SDS011;3158;52.148;11.568;2024-02-28T12:04:35;19.77;;;12.07;;
6249;SDS011;3158;52.148;11.568;2024-02-28T12:09:36;17.23;;;11.70;;
6249;SDS011;3158;52.148;11.568;2024-02-28T12:14:36;17.85;;;11.30;;
6249;SDS011;3158;52.148;11.568;2024-02-28T12:19:38;22.05;;;12.85;;
6249;SDS011;3158;52.148;11.568;2024-02-28T12:24:39;18.63;;;11.15;;
6249;SDS011;3158;52.148;11.568;2024-02-28T12:29:39;18.08;;;11.50;;
6249;SDS011;3158;52.148;11.568;2024-02-28T12:34:39;18.75;;;12.02;;
6249;SDS011;3158;52.148;11.568;2024-02-28T12:39:40;16.38;;;11.35;;
6249;SDS011;3158;52.148;11.568;2024-02-28T12:44:40;20.13;;;11.80;;
6249;SDS011;3158;52.148;11.568;2024-02-28T12:49:45;15.32;;;11.45;;
6249;SDS011;3158;52.148;11.568;2024-02-28T12:54:46;16.08;;;11.52;;
6249;SDS011;3158;52.148;11.568;2024-02-28T12:59:47;19.75;;;11.73;;
6249;SDS011;3158;52.148;11.568;2024-02-28T13:04:47;19.35;;;12.35;;
6249;SDS011;3158;52.148;11.568;2024-02-28T13:09:49;16.75;;;11.18;;
6249;SDS011;3158;52.148;11.568;2024-02-28T13:14:50;16.17;;;10.52;;
6249;SDS011;3158;52.148;11.568;2024-02-28T13:19:51;16.63;;;11.13;;
6249;SDS011;3158;52.148;11.568;2024-02-28T13:24:51;17.02;;;12.20;;
6249;SDS011;3158;52.148;11.568;2024-02-28T13:29:52;19.42;;;12.70;;
6249;SDS011;3158;52.148;11.568;2024-02-28T13:34:52;18.08;;;11.63;;
6249;SDS011;3158;52.148;11.568;2024-02-28T13:39:53;16.23;;;11.05;;
6249;SDS011;3158;52.148;11.568;2024-02-28T13:44:53;23.30;;;13.40;;
6249;SDS011;3158;52.148;11.568;2024-02-28T13:49:53;18.93;;;12.00;;
6249;SDS011;3158;52.148;11.568;2024-02-28T13:54:54;17.75;;;11.55;;
6249;SDS011;3158;52.148;11.568;2024-02-28T13:59:54;18.33;;;11.05;;
6249;SDS011;3158;52.148;11.568;2024-02-28T14:04:55;17.48;;;11.52;;
6249;SDS011;3158;52.148;11.568;2024-02-28T14:09:56;16.88;;;10.80;;
6249;SDS011;3158;52.148;11.568;2024-02-28T14:14:57;16.98;;;10.50;;
6249;SDS011;3158;52.148;11.568;2024-02-28T14:19:57;17.98;;;11.35;;
6249;SDS011;3158;52.148;11.568;2024-02-28T14:24:59;18.00;;;11.13;;
6249;SDS011;3158;52.148;11.568;2024-02-28T14:29:59;19.55;;;11.48;;
6249;SDS011;3158;52.148;11.568;2024-02-28T14:35:00;17.83;;;12.15;;
6249;SDS011;3158;52.148;11.568;2024-02-28T14:40:00;18.73;;;11.03;;
6249;SDS011;3158;52.148;11.568;2024-02-28T14:45:06;20.27;;;11.02;;
6249;SDS011;3158;52.148;11.568;2024-02-28T14:50:07;18.58;;;11.50;;
6249;SDS011;3158;52.148;11.568;2024-02-28T14:55:11;20.30;;;11.93;;
6249;SDS011;3158;52.148;11.568;2024-02-28T15:00:12;19.65;;;11.68;;
6249;SDS011;3158;52.148;11.568;2024-02-28T15:05:15;23.17;;;12.25;;
6249;SDS011;3158;52.148;11.568;2024-02-28T15:10:16;19.88;;;11.70;;
6249;SDS011;3158;52.148;11.568;2024-02-28T15:15:16;22.45;;;11.13;;
6249;SDS011;3158;52.148;11.568;2024-02-28T15:20:17;24.08;;;11.77;;
6249;SDS011;3158;52.148;11.568;2024-02-28T15:25:17;19.85;;;11.13;;
6249;SDS011;3158;52.148;11.568;2024-02-28T15:30:18;22.60;;;11.80;;
6249;SDS011;3158;52.148;11.568;2024-02-28T15:35:18;22.02;;;10.98;;
6249;SDS011;3158;52.148;11.568;2024-02-28T15:40:20;18.20;;;10.75;;
6249;SDS011;3158;52.148;11.568;2024-02-28T15:45:23;23.92;;;11.18;;
6249;SDS011;3158;52.148;11.568;2024-02-28T15:50:23;19.58;;;11.70;;
6249;SDS011;3158;52.148;11.568;2024-02-28T15:55:24;21.02;;;10.38;;
6249;SDS011;3158;52.148;11.568;2024-02-28T16:00:24;20.55;;;11.85;;
6249;SDS011;3158;52.148;11.568;2024-02-28T16:05:24;18.10;;;11.13;;
6249;SDS011;3158;52.148;11.568;2024-02-28T16:10:27;20.90;;;11.50;;
6249;SDS011;3158;52.148;11.568;2024-02-28T16:15:28;17.02;;;10.20;;
6249;SDS011;3158;52.148;11.568;2024-02-28T16:20:28;19.40;;;10.88;;
6249;SDS011;3158;52.148;11.568;2024-02-28T16:25:28;20.48;;;10.35;;
6249;SDS011;3158;52.148;11.568;2024-02-28T16:30:29;21.98;;;12.18;;
6249;SDS011;3158;52.148;11.568;2024-02-28T16:35:29;22.20;;;12.35;;
6249;SDS011;3158;52.148;11.568;2024-02-28T16:40:30;19.00;;;9.68;;
6249;SDS011;3158;52.148;11.568;2024-02-28T16:45:31;20.25;;;11.65;;
6249;SDS011;3158;52.148;11.568;2024-02-28T16:50:31;21.70;;;11.40;;
6249;SDS011;3158;52.148;11.568;2024-02-28T16:55:31;19.07;;;10.43;;
6249;SDS011;3158;52.148;11.568;2024-02-28T17:00:31;16.58;;;9.70;;
6249;SDS011;3158;52.148;11.568;2024-02-28T17:05:33;16.65;;;10.10;;
6249;SDS011;3158;52.148;11.568;2024-02-28T17:10:38;17.90;;;10.65;;
6249;SDS011;3158;52.148;11.568;2024-02-28T17:15:39;21.98;;;10.82;;
6249;SDS011;3158;52.148;11.568;2024-02-28T17:20:39;21.02;;;10.90;;
6249;SDS011;3158;52.148;11.568;2024-02-28T17:25:39;20.63;;;10.93;;
6249;SDS011;3158;52.148;11.568;2024-02-28T17:30:40;21.45;;;11.35;;
6249;SDS011;3158;52.148;11.568;2024-02-28T17:35:40;19.60;;;10.63;;
6249;SDS011;3158;52.148;11.568;2024-02-28T17:40:41;23.45;;;12.05;;
6249;SDS011;3158;52.148;11.568;2024-02-28T17:45:42;26.25;;;14.57;;
6249;SDS011;3158;52.148;11.568;2024-02-28T17:50:42;32.17;;;16.13;;
6249;SDS011;3158;52.148;11.568;2024-02-28T17:55:42;24.90;;;12.52;;
6249;SDS011;3158;52.148;11.568;2024-02-28T18:00:42;23.42;;;13.20;;
6249;SDS011;3158;52.148;11.568;2024-02-28T18:05:46;28.38;;;15.07;;
6249;SDS011;3158;52.148;11.568;2024-02-28T18:10:47;22.60;;;12.65;;
6249;SDS011;3158;52.148;11.568;2024-02-28T18:15:47;30.85;;;14.10;;
6249;SDS011;3158;52.148;11.568;2024-02-28T18:20:47;26.63;;;12.82;;
6249;SDS011;3158;52.148;11.568;2024-02-28T18:25:48;27.13;;;12.45;;
6249;SDS011;3158;52.148;11.568;2024-02-28T18:30:48;24.88;;;13.45;;
6249;SDS011;3158;52.148;11.568;2024-02-28T18:35:48;26.35;;;13.18;;
6249;SDS011;3158;52.148;11.568;2024-02-28T18:40:48;25.40;;;12.77;;
6249;SDS011;3158;52.148;11.568;2024-02-28T18:45:49;26.13;;;13.40;;
6249;SDS011;3158;52.148;11.568;2024-02-28T18:50:49;24.52;;;13.32;;
6249;SDS011;3158;52.148;11.568;2024-02-28T18:55:49;28.25;;;13.48;;
6249;SDS011;3158;52.148;11.568;2024-02-28T19:00:50;30.88;;;13.70;;
6249;SDS011;3158;52.148;11.568;2024-02-28T19:05:50;26.10;;;12.50;;
6249;SDS011;3158;52.148;11.568;2024-02-28T19:10:50;26.48;;;13.57;;
6249;SDS011;3158;52.148;11.568;2024-02-28T19:15:51;25.50;;;13.95;;
6249;SDS011;3158;52.148;11.568;2024-02-28T19:20:52;30.95;;;14.93;;
6249;SDS011;3158;52.148;11.568;2024-02-28T19:25:52;27.58;;;14.15;;
6249;SDS011;3158;52.148;11.568;2024-02-28T19:30:52;25.60;;;13.50;;
6249;SDS011;3158;52.148;11.568;2024-02-28T19:35:52;27.40;;;13.63;;
6249;SDS011;3158;52.148;11.568;2024-02-28T19:40:53;28.25;;;13.32;;
6249;SDS011;3158;52.148;11.568;2024-02-28T19:45:53;31.17;;;15.38;;
6249;SDS011;3158;52.148;11.568;2024-02-28T19:50:54;29.88;;;13.77;;
6249;SDS011;3158;52.148;11.568;2024-02-28T19:55:54;26.80;;;14.20;;
6249;SDS011;3158;52.148;11.568;2024-02-28T20:00:54;23.27;;;11.98;;
6249;SDS011;3158;52.148;11.568;2024-02-28T20:05:54;31.23;;;13.93;;
6249;SDS011;3158;52.148;11.568;2024-02-28T20:10:54;35.33;;;16.58;;
6249;SDS011;3158;52.148;11.568;2024-02-28T20:15:55;29.90;;;15.05;;
6249;SDS011;3158;52.148;11.568;2024-02-28T20:20:55;30.75;;;15.05;;
6249;SDS011;3158;52.148;11.568;2024-02-28T20:25:55;30.58;;;14.02;;
6249;SDS011;3158;52.148;11.568;2024-02-28T20:30:56;32.03;;;13.95;;
6249;SDS011;3158;52.148;11.568;2024-02-28T20:35:56;33.35;;;14.00;;
6249;SDS011;3158;52.148;11.568;2024-02-28T20:40:56;31.45;;;13.63;;
6249;SDS011;3158;52.148;11.568;2024-02-28T20:45:57;28.20;;;14.00;;
6249;SDS011;3158;52.148;11.568;2024-02-28T20:50:57;29.10;;;13.85;;
6249;SDS011;3158;52.148;11.568;2024-02-28T20:56:00;29.88;;;15.05;;
6249;SDS011;3158;52.148;11.568;2024-02-28T21:01:00;28.65;;;14.05;;
6249;SDS011;3158;52.148;11.568;2024-02-28T21:06:01;24.58;;;12.00;;
6249;SDS011;3158;52.148;11.568;2024-02-28T21:11:01;28.02;;;12.95;;
6249;SDS011;3158;52.148;11.568;2024-02-28T21:16:01;29.83;;;13.50;;
6249;SDS011;3158;52.148;11.568;2024-02-28T21:21:02;30.10;;;14.48;;
6249;SDS011;3158;52.148;11.568;2024-02-28T21:26:02;32.00;;;14.23;;
6249;SDS011;3158;52.148;11.568;2024-02-28T21:31:03;25.00;;;12.32;;
6249;SDS011;3158;52.148;11.568;2024-02-28T21:36:03;32.47;;;14.32;;
6249;SDS011;3158;52.148;11.568;2024-02-28T21:41:03;29.95;;;13.35;;
6249;SDS011;3158;52.148;11.568;2024-02-28T21:46:03;31.15;;;13.45;;
6249;SDS011;3158;52.148;11.568;2024-02-28T21:51:04;31.75;;;13.05;;
6249;SDS011;3158;52.148;11.568;2024-02-28T21:56:05;25.60;;;12.30;;
6249;SDS011;3158;52.148;11.568;2024-02-28T22:01:06;31.83;;;13.75;;
6249;SDS011;3158;52.148;11.568;2024-02-28T22:06:06;23.20;;;12.32;;
6249;SDS011;3158;52.148;11.568;2024-02-28T22:11:07;27.20;;;13.23;;
6249;SDS011;3158;52.148;11.568;2024-02-28T22:16:07;29.13;;;12.13;;
6249;SDS011;3158;52.148;11.568;2024-02-28T22:21:07;26.75;;;12.63;;
6249;SDS011;3158;52.148;11.568;2024-02-28T22:26:07;25.75;;;12.70;;
6249;SDS011;3158;52.148;11.568;2024-02-28T22:31:08;24.60;;;11.40;;
6249;SDS011;3158;52.148;11.568;2024-02-28T22:36:10;24.30;;;11.25;;
6249;SDS011;3158;52.148;11.568;2024-02-28T22:41:11;28.10;;;11.52;;
6249;SDS011;3158;52.148;11.568;2024-02-28T22:46:11;24.17;;;10.88;;
6249;SDS011;3158;52.148;11.568;2024-02-28T22:51:11;24.02;;;10.85;;
6249;SDS011;3158;52.148;11.568;2024-02-28T22:56:11;24.07;;;11.97;;
6249;SDS011;3158;52.148;11.568;2024-02-28T23:01:12;20.63;;;11.15;;
6249;SDS011;3158;52.148;11.568;2024-02-28T23:06:12;23.40;;;10.35;;
6249;SDS011;3158;52.148;11.568;2024-02-28T23:11:12;22.83;;;10.85;;
6249;SDS011;3158;52.148;11.568;2024-02-28T23:16:13;22.88;;;10.77;;
6249;SDS011;3158;52.148;11.568;2024-02-28T23:21:13;24.00;;;11.48;;
6249;SDS011;3158;52.148;11.568;2024-02-28T23:26:14;23.98;;;11.25;;
6249;SDS011;3158;52.148;11.568;2024-02-28T23:31:14;26.13;;;11.68;;
6249;SDS011;3158;52.148;11.568;2024-02-28T23:36:15;24.02;;;11.15;;
6249;SDS011;3158;52.148;11.568;2024-02-28T23:41:15;30.55;;;11.27;;
6249;SDS011;3158;52.148;11.568;2024-02-28T23:46:15;25.77;;;11.57;;
6249;SDS011;3158;52.148;11.568;2024-02-28T23:51:16;25.23;;;10.18;;
6249;SDS011;3158;52.148;11.568;2024-02-28T23:56:18;26.58;;;12.27;;
